Time;durP1;ratioP1;P1;durP2;ratioP2;P2;SDS_P1;SDS_P2;PMS_P1;PMS_P2;Temp;Humidity;BMP_temperature;BMP_pressure;BME280_temperature;BME280_humidity;BME280_pressure;Samples;Min_cycle;Max_cycle;Signal;HPM_P1;HPM_P2
2020/12/09 00:01:32;;;;;;;21.20;19.03;;;;;;;1.21;100.00;96824.19;4998192;28;20443;-70
2020/12/09 00:04:00;;;;;;;21.27;19.00;;;;;;;1.19;100.00;96818.28;4993828;28;20232;-72
2020/12/09 00:06:28;;;;;;;25.13;19.77;;;;;;;1.19;100.00;96814.84;4987395;28;20236;-70
2020/12/09 00:08:55;;;;;;;21.10;19.00;;;;;;;1.19;100.00;96814.84;4981117;28;20212;-71
2020/12/09 00:11:23;;;;;;;25.20;20.93;;;;;;;1.15;100.00;96819.53;4994975;28;20228;-70
2020/12/09 00:13:50;;;;;;;22.60;20.27;;;;;;;1.01;100.00;96818.09;4963207;28;20216;-72
2020/12/09 00:16:18;;;;;;;24.33;20.83;;;;;;;0.97;100.00;96816.72;5002157;28;20225;-73
2020/12/09 00:18:45;;;;;;;22.10;19.77;;;;;;;1.12;100.00;96815.38;4998938;28;20205;-72
2020/12/09 00:21:16;;;;;;;23.10;20.63;;;;;;;1.11;100.00;96815.50;4988418;28;20212;-72
2020/12/09 00:23:43;;;;;;;21.13;18.90;;;;;;;1.21;100.00;96816.38;4996269;28;20209;-72
2020/12/09 00:26:10;;;;;;;22.17;19.93;;;;;;;1.15;100.00;96809.06;4984862;28;20232;-73
2020/12/09 00:28:38;;;;;;;20.80;18.70;;;;;;;1.17;100.00;96801.09;4952813;28;20217;-70
2020/12/09 00:31:06;;;;;;;21.77;19.50;;;;;;;1.12;100.00;96804.94;5000792;28;20488;-71
2020/12/09 00:33:33;;;;;;;22.17;19.93;;;;;;;1.09;100.00;96800.00;5000441;28;20204;-70
2020/12/09 00:36:01;;;;;;;21.77;19.60;;;;;;;0.95;100.00;96802.97;4985743;28;20239;-71
2020/12/09 00:38:28;;;;;;;23.30;20.50;;;;;;;0.93;100.00;96813.53;4999813;28;20200;-70
2020/12/09 00:40:54;;;;;;;20.70;18.60;;;;;;;0.96;100.00;96825.50;4985186;28;20213;-72
2020/12/09 00:43:21;;;;;;;22.63;20.20;;;;;;;0.98;100.00;96831.41;4957360;28;20217;-70
2020/12/09 00:45:49;;;;;;;20.63;18.53;;;;;;;0.86;100.00;96834.09;4998110;28;20235;-71
2020/12/09 00:48:17;;;;;;;20.87;18.77;;;;;;;0.98;100.00;96834.03;5003584;28;20232;-72
2020/12/09 00:50:44;;;;;;;22.40;20.03;;;;;;;0.90;100.00;96834.69;4996287;28;20918;-71
2020/12/09 00:53:11;;;;;;;22.37;19.77;;;;;;;1.04;100.00;96838.72;4983449;28;20439;-72
2020/12/09 00:55:38;;;;;;;22.80;20.33;;;;;;;1.01;100.00;96844.19;4981571;28;20347;-70
2020/12/09 00:58:05;;;;;;;22.30;19.80;;;;;;;0.93;100.00;96839.63;4996768;28;22188;-73
2020/12/09 01:00:32;;;;;;;22.13;19.40;;;;;;;0.96;100.00;96862.03;4956720;28;20920;-70
2020/12/09 01:03:00;;;;;;;22.33;19.80;;;;;;;0.88;100.00;96860.06;4999487;28;20212;-70
2020/12/09 01:05:27;;;;;;;22.90;20.37;;;;;;;0.92;100.00;96865.84;4997061;28;20236;-69
2020/12/09 01:07:54;;;;;;;23.20;20.03;;;;;;;0.96;100.00;96859.41;4981886;28;20216;-72
2020/12/09 01:10:20;;;;;;;21.80;19.47;;;;;;;0.89;100.00;96869.53;4983742;28;20336;-70
2020/12/09 01:12:47;;;;;;;23.37;20.83;;;;;;;0.91;100.00;96877.22;4993563;28;20228;-72
2020/12/09 01:15:14;;;;;;;23.53;19.23;;;;;;;0.92;100.00;96884.09;4959303;28;20244;-72
2020/12/09 01:17:41;;;;;;;23.07;20.77;;;;;;;0.78;100.00;96874.84;4998519;28;20296;-71
2020/12/09 01:20:09;;;;;;;23.33;20.97;;;;;;;0.83;100.00;96873.50;4999758;28;20409;-72
2020/12/09 01:22:36;;;;;;;22.47;20.07;;;;;;;0.91;100.00;96872.00;4991336;28;20205;-70
2020/12/09 01:25:03;;;;;;;22.70;20.23;;;;;;;1.05;100.00;96874.28;4981926;28;20277;-72
2020/12/09 01:27:30;;;;;;;22.27;19.83;;;;;;;1.08;100.00;96868.78;4977820;28;20209;-72
2020/12/09 01:29:57;;;;;;;26.87;20.67;;;;;;;1.06;100.00;96867.25;4960103;28;20212;-70
2020/12/09 01:32:24;;;;;;;21.83;19.63;;;;;;;1.18;100.00;96866.22;4994486;28;20224;-72
2020/12/09 01:34:51;;;;;;;21.90;19.20;;;;;;;0.98;100.00;96871.34;4996080;28;20228;-69
2020/12/09 01:37:19;;;;;;;22.40;19.07;;;;;;;1.19;100.00;96877.47;4993944;28;20211;-70
2020/12/09 01:39:46;;;;;;;21.67;19.47;;;;;;;1.22;100.00;96877.19;4982475;28;21021;-70
2020/12/09 01:42:13;;;;;;;22.97;18.63;;;;;;;1.30;100.00;96872.13;4980886;28;20440;-72
2020/12/09 01:44:40;;;;;;;20.83;18.70;;;;;;;1.23;100.00;96871.88;5000702;28;20294;-71
2020/12/09 01:47:07;;;;;;;19.07;17.00;;;;;;;1.11;100.00;96865.91;4961734;28;20224;-72
2020/12/09 01:49:35;;;;;;;20.80;18.63;;;;;;;1.10;100.00;96872.09;4999704;28;20212;-73
2020/12/09 01:52:04;;;;;;;20.83;18.50;;;;;;;1.10;100.00;96874.69;4996172;28;20236;-68
2020/12/09 01:54:31;;;;;;;20.73;18.53;;;;;;;1.01;100.00;96889.34;5000224;28;20606;-69
2020/12/09 01:57:06;;;;;;;21.67;18.23;;;;;;;1.10;100.00;96895.59;4970920;28;20213;-68
2020/12/09 01:59:34;;;;;;;21.70;18.90;;;;;;;1.03;100.00;96891.00;4999571;28;20224;-70
2020/12/09 02:02:01;;;;;;;20.77;18.67;;;;;;;0.95;100.00;96899.50;4961778;28;21546;-69
2020/12/09 02:04:28;;;;;;;20.43;18.40;;;;;;;0.89;100.00;96907.84;5001970;28;20205;-71
2020/12/09 02:06:55;;;;;;;20.33;18.10;;;;;;;0.84;100.00;96903.03;5002196;28;20596;-68
2020/12/09 02:09:24;;;;;;;21.13;18.93;;;;;;;0.86;100.00;96893.28;4999194;28;20204;-71
2020/12/09 02:11:52;;;;;;;20.00;17.97;;;;;;;0.90;100.00;96899.03;4987316;28;20229;-68
2020/12/09 02:14:20;;;;;;;19.63;17.70;;;;;;;0.92;100.00;96904.97;4984846;28;20211;-71
2020/12/09 02:16:48;;;;;;;21.27;18.97;;;;;;;0.90;100.00;96902.50;4989249;28;20209;-68
2020/12/09 02:19:16;;;;;;;22.90;18.90;;;;;;;0.92;100.00;96910.19;4986736;28;20208;-70
2020/12/09 02:21:43;;;;;;;21.07;18.90;;;;;;;0.89;100.00;96913.06;5005542;28;20208;-68
2020/12/09 02:24:10;;;;;;;21.00;18.80;;;;;;;1.08;100.00;96910.53;5000905;28;20216;-70
2020/12/09 02:26:41;;;;;;;22.47;18.90;;;;;;;1.14;100.00;96912.63;4987080;28;20205;-70
2020/12/09 02:29:08;;;;;;;22.20;19.63;;;;;;;1.08;100.00;96915.75;4981314;28;20208;-70
2020/12/09 02:31:35;;;;;;;20.43;18.37;;;;;;;1.01;100.00;96918.06;5003930;28;20234;-69
2020/12/09 02:34:03;;;;;;;22.70;18.53;;;;;;;1.07;100.00;96916.72;4956016;28;20946;-67
2020/12/09 02:36:30;;;;;;;20.47;18.27;;;;;;;1.08;100.00;96925.34;4994669;28;20241;-69
2020/12/09 02:38:57;;;;;;;23.33;17.93;;;;;;;1.15;100.00;96923.91;4998294;28;20205;-68
2020/12/09 02:41:24;;;;;;;21.40;19.10;;;;;;;1.19;100.00;96927.06;5003397;28;20205;-69
2020/12/09 02:43:52;;;;;;;20.97;18.97;;;;;;;1.16;100.00;96928.16;4976036;28;20283;-68
2020/12/09 02:46:19;;;;;;;21.73;19.53;;;;;;;1.08;100.00;96926.19;4996562;28;20233;-71
2020/12/09 02:48:47;;;;;;;21.73;19.53;;;;;;;1.09;100.00;96919.19;4989382;28;20213;-68
2020/12/09 02:51:14;;;;;;;21.63;19.33;;;;;;;1.05;100.00;96921.25;4979654;28;20208;-70
2020/12/09 02:53:41;;;;;;;23.00;19.83;;;;;;;1.13;100.00;96921.41;5003550;28;20628;-69
2020/12/09 02:56:09;;;;;;;23.60;21.10;;;;;;;1.02;100.00;96921.50;4997480;28;20221;-70
2020/12/09 02:58:36;;;;;;;26.37;21.87;;;;;;;0.92;100.00;96918.84;4986156;28;20213;-68
2020/12/09 03:01:03;;;;;;;21.83;19.60;;;;;;;1.04;100.00;96930.03;4983373;28;20209;-70
2020/12/09 03:03:30;;;;;;;22.90;20.07;;;;;;;0.98;100.00;96933.97;4996020;28;20201;-68
2020/12/09 03:05:58;;;;;;;21.87;19.63;;;;;;;1.07;100.00;96937.59;4968469;28;21111;-70
2020/12/09 03:08:25;;;;;;;22.03;19.67;;;;;;;1.06;100.00;96940.31;5000109;28;21041;-68
2020/12/09 03:10:52;;;;;;;21.20;18.83;;;;;;;1.15;100.00;96942.19;4980051;28;20216;-71
2020/12/09 03:13:19;;;;;;;20.63;18.53;;;;;;;1.07;100.00;96948.03;4994791;28;20918;-68
2020/12/09 03:15:46;;;;;;;21.77;19.43;;;;;;;1.13;100.00;96942.28;4980047;28;20275;-70
2020/12/09 03:18:15;;;;;;;23.47;19.37;;;;;;;0.97;100.00;96940.16;5003278;28;20205;-68
2020/12/09 03:20:45;;;;;;;22.27;19.97;;;;;;;0.98;100.00;96944.41;4958844;28;20216;-70
2020/12/09 03:23:12;;;;;;;21.07;18.80;;;;;;;1.02;100.00;96950.22;5000282;28;20205;-69
2020/12/09 03:25:39;;;;;;;23.07;20.07;;;;;;;0.98;100.00;96959.25;4997573;28;20224;-70
2020/12/09 03:28:06;;;;;;;20.80;18.40;;;;;;;1.15;100.00;96963.84;4998768;28;20213;-69
2020/12/09 03:30:34;;;;;;;26.60;19.13;;;;;;;1.17;100.00;96968.97;4975999;28;20205;-69
2020/12/09 03:33:01;;;;;;;20.83;18.63;;;;;;;1.12;100.00;96966.72;4977349;28;20225;-68
2020/12/09 03:35:28;;;;;;;22.57;20.27;;;;;;;0.95;100.00;96970.75;4981185;28;20824;-70
2020/12/09 03:37:54;;;;;;;21.37;19.13;;;;;;;1.10;100.00;96973.03;4945877;28;20220;-69
2020/12/09 03:40:22;;;;;;;22.07;19.63;;;;;;;1.02;100.00;96965.88;4981385;28;20468;-68
2020/12/09 03:42:49;;;;;;;22.33;18.47;;;;;;;1.19;100.00;96967.06;4978071;28;20247;-69
2020/12/09 03:45:16;;;;;;;19.83;17.73;;;;;;;1.08;100.00;96961.91;4968644;28;20232;-67
2020/12/09 03:47:44;;;;;;;20.37;18.20;;;;;;;1.17;100.00;96966.34;4958678;28;20209;-68
2020/12/09 03:50:11;;;;;;;18.93;17.03;;;;;;;1.05;100.00;96965.59;4992087;28;20236;-70
2020/12/09 03:52:38;;;;;;;21.67;19.33;;;;;;;1.02;100.00;96965.88;4956532;28;20260;-67
2020/12/09 03:55:05;;;;;;;21.00;18.67;;;;;;;1.08;100.00;96969.72;4998154;28;20315;-70
2020/12/09 03:57:32;;;;;;;22.53;19.90;;;;;;;0.99;100.00;96974.75;4993375;28;20384;-70
2020/12/09 03:59:59;;;;;;;22.20;19.23;;;;;;;1.08;100.00;96967.09;4982649;28;20204;-69
2020/12/09 04:02:26;;;;;;;20.93;18.77;;;;;;;1.18;100.00;96975.00;4994280;28;20605;-70
2020/12/09 04:04:54;;;;;;;21.93;19.60;;;;;;;1.02;100.00;96976.31;4994259;28;20236;-68
2020/12/09 04:07:21;;;;;;;22.20;19.23;;;;;;;0.89;100.00;96973.88;4967875;28;20582;-70
2020/12/09 04:09:48;;;;;;;22.40;20.10;;;;;;;0.86;100.00;96974.97;4997106;28;20205;-67
2020/12/09 04:12:15;;;;;;;22.57;20.07;;;;;;;1.00;100.00;96970.38;4998594;28;20239;-70
2020/12/09 04:14:42;;;;;;;24.03;20.53;;;;;;;0.95;100.00;96967.34;4999844;28;20589;-68
2020/12/09 04:17:08;;;;;;;21.93;19.63;;;;;;;0.91;100.00;96971.97;4987516;28;20669;-69
2020/12/09 04:19:35;;;;;;;22.50;19.90;;;;;;;0.86;100.00;96967.13;5000465;28;20236;-68
2020/12/09 04:22:03;;;;;;;22.63;20.33;;;;;;;0.87;100.00;96967.97;4993412;28;20205;-67
2020/12/09 04:24:30;;;;;;;25.43;22.33;;;;;;;0.90;100.00;96972.09;4961223;28;20214;-70
2020/12/09 04:26:57;;;;;;;26.83;21.43;;;;;;;0.81;100.00;96971.09;4990814;28;20206;-67
2020/12/09 04:29:24;;;;;;;23.57;21.00;;;;;;;0.91;100.00;96974.59;5002521;28;20442;-69
2020/12/09 04:31:51;;;;;;;23.20;20.40;;;;;;;0.86;100.00;96974.16;4980119;28;20255;-68
2020/12/09 04:34:19;;;;;;;24.87;20.40;;;;;;;0.84;100.00;96976.88;4978535;28;20333;-70
2020/12/09 04:36:46;;;;;;;25.20;21.63;;;;;;;0.81;100.00;96974.53;4979184;28;20326;-70
2020/12/09 04:39:15;;;;;;;25.17;21.27;;;;;;;0.89;100.00;96968.66;4954223;28;20311;-68
2020/12/09 04:41:44;;;;;;;25.57;20.23;;;;;;;0.92;100.00;96970.19;4977626;28;20215;-68
2020/12/09 04:44:11;;;;;;;24.30;21.37;;;;;;;0.91;100.00;96969.38;4993358;28;20216;-68
2020/12/09 04:46:42;;;;;;;24.70;21.03;;;;;;;0.85;100.00;96968.09;4984436;28;20712;-67
2020/12/09 04:49:14;;;;;;;23.60;20.10;;;;;;;0.96;100.00;96966.38;4994195;28;20208;-71
2020/12/09 04:52:00;;;;;;;23.63;21.20;;;;;;;0.84;100.00;96968.22;4993705;28;20205;-68
2020/12/09 04:54:36;;;;;;;23.17;20.63;;;;;;;0.81;100.00;96963.28;4959211;28;20212;-68
2020/12/09 04:57:09;;;;;;;24.93;22.00;;;;;;;0.83;100.00;96980.44;4997786;28;20196;-70
2020/12/09 04:59:39;;;;;;;23.80;20.20;;;;;;;0.94;100.00;96981.31;4979315;28;20584;-66
2020/12/09 05:02:07;;;;;;;25.27;21.87;;;;;;;0.88;100.00;96989.66;4983239;28;20215;-69
2020/12/09 05:04:35;;;;;;;25.00;20.47;;;;;;;1.00;100.00;96980.81;4993214;28;20609;-66
2020/12/09 05:07:06;;;;;;;25.00;22.40;;;;;;;0.92;100.00;96983.22;4992176;28;20296;-68
2020/12/09 05:09:41;;;;;;;23.43;19.67;;;;;;;0.85;100.00;96978.53;4975674;28;20586;-66
2020/12/09 05:12:11;;;;;;;22.67;20.27;;;;;;;1.03;100.00;96995.38;4995119;28;20235;-68
2020/12/09 05:14:45;;;;;;;23.47;20.33;;;;;;;1.05;100.00;97004.75;4980027;28;20228;-67
2020/12/09 05:17:16;;;;;;;23.00;20.70;;;;;;;1.09;100.00;96998.31;4998573;28;20204;-68
2020/12/09 05:19:43;;;;;;;21.83;19.43;;;;;;;1.10;100.00;96999.13;4984104;28;20648;-67
2020/12/09 05:22:15;;;;;;;22.40;20.00;;;;;;;1.04;100.00;97004.84;5002282;28;20201;-68
2020/12/09 05:24:43;;;;;;;22.87;20.47;;;;;;;1.17;100.00;97009.88;4963118;28;20301;-67
2020/12/09 05:27:10;;;;;;;24.73;20.80;;;;;;;1.09;100.00;97013.13;4997488;28;20594;-68
2020/12/09 05:29:44;;;;;;;26.83;21.77;;;;;;;1.10;100.00;97004.34;4995418;28;20308;-67
2020/12/09 05:32:11;;;;;;;26.67;23.83;;;;;;;0.94;100.00;97010.84;5000530;28;20232;-69
2020/12/09 05:34:38;;;;;;;26.53;22.77;;;;;;;0.83;100.00;97009.13;4984835;28;20240;-67
2020/12/09 05:37:07;;;;;;;24.00;21.37;;;;;;;0.95;100.00;97012.50;5004261;28;20213;-69
2020/12/09 05:39:35;;;;;;;24.27;21.67;;;;;;;0.95;100.00;97014.31;4999542;28;20209;-67
2020/12/09 05:42:14;;;;;;;22.17;19.80;;;;;;;0.89;100.00;97027.81;4961741;28;20363;-67
2020/12/09 05:44:43;;;;;;;23.63;20.07;;;;;;;0.94;100.00;97028.28;4986840;28;20600;-67
2020/12/09 05:47:10;;;;;;;24.77;20.57;;;;;;;0.95;100.00;97029.97;4993923;28;20213;-68
2020/12/09 05:49:39;;;;;;;26.00;22.97;;;;;;;0.85;100.00;97030.69;4988053;28;20216;-66
2020/12/09 05:52:12;;;;;;;23.13;20.73;;;;;;;0.88;100.00;97037.44;4987650;28;20284;-69
2020/12/09 05:54:40;;;;;;;28.53;24.00;;;;;;;0.80;100.00;97039.88;4989796;28;20228;-66
2020/12/09 05:57:10;;;;;;;28.03;23.20;;;;;;;0.78;100.00;97052.22;4962995;28;20202;-68
2020/12/09 05:59:38;;;;;;;24.00;20.03;;;;;;;0.92;100.00;97048.44;5001973;28;20790;-67
2020/12/09 06:02:10;;;;;;;25.07;21.20;;;;;;;0.89;100.00;97054.75;5001500;28;20305;-68
2020/12/09 06:04:59;;;;;;;32.43;25.53;;;;;;;0.82;100.00;97062.25;4992025;28;20230;-66
2020/12/09 06:07:27;;;;;;;24.43;20.97;;;;;;;0.92;100.00;97049.28;4978874;28;20591;-66
2020/12/09 06:10:14;;;;;;;27.00;21.90;;;;;;;0.93;100.00;97053.56;4996514;28;20211;-69
2020/12/09 06:12:59;;;;;;;25.23;21.60;;;;;;;0.86;100.00;97066.25;4951483;28;20220;-68
2020/12/09 06:15:27;;;;;;;21.90;19.60;;;;;;;0.91;100.00;97072.88;5000169;28;20251;-66
2020/12/09 06:18:05;;;;;;;21.73;18.83;;;;;;;0.93;100.00;97081.41;4998620;28;20201;-68
2020/12/09 06:20:34;;;;;;;26.30;22.87;;;;;;;0.86;100.00;97087.13;4986347;28;20582;-66
2020/12/09 06:23:02;;;;;;;23.33;19.97;;;;;;;0.89;100.00;97082.63;4999553;28;20224;-69
2020/12/09 06:25:29;;;;;;;22.93;20.43;;;;;;;0.89;100.00;97093.03;5000028;28;20229;-67
2020/12/09 06:27:58;;;;;;;22.30;19.90;;;;;;;0.97;100.00;97093.28;4960681;28;20212;-69
2020/12/09 06:30:29;;;;;;;22.83;20.40;;;;;;;0.85;100.00;97095.09;5004416;28;20224;-66
2020/12/09 06:32:56;;;;;;;23.73;20.23;;;;;;;0.81;100.00;97094.50;5000894;28;20225;-68
2020/12/09 06:35:23;;;;;;;28.93;22.53;;;;;;;0.71;100.00;97099.63;4999673;28;20224;-66
2020/12/09 06:38:16;;;;;;;26.07;21.40;;;;;;;0.75;100.00;97099.38;4982328;28;20712;-68
2020/12/09 06:41:12;;;;;;;25.70;22.67;;;;;;;0.75;100.00;97107.22;5000465;28;20213;-67
2020/12/09 06:44:00;;;;;;;24.50;20.87;;;;;;;0.71;100.00;97106.63;4961475;28;23125;-67
2020/12/09 06:46:45;;;;;;;23.27;20.83;;;;;;;0.80;100.00;97099.88;5001284;28;20420;-69
2020/12/09 06:49:33;;;;;;;25.23;20.70;;;;;;;0.81;100.00;97110.16;4998662;28;20221;-67
2020/12/09 06:52:00;;;;;;;24.77;22.07;;;;;;;0.78;100.00;97114.81;5004135;28;20571;-67
2020/12/09 06:54:38;;;;;;;24.53;21.40;;;;;;;0.75;100.00;97108.03;4985059;28;20613;-69
2020/12/09 06:57:17;;;;;;;25.03;21.47;;;;;;;0.78;100.00;97109.59;4996598;28;20208;-66
2020/12/09 06:59:45;;;;;;;24.37;20.83;;;;;;;0.86;100.00;97109.78;4957506;28;20699;-68
2020/12/09 07:02:24;;;;;;;27.20;24.27;;;;;;;0.93;100.00;97113.56;5002731;28;20299;-67
2020/12/09 07:05:05;;;;;;;51.87;41.67;;;;;;;0.86;100.00;97107.19;4998123;28;20224;-69
2020/12/09 07:07:33;;;;;;;25.63;22.67;;;;;;;0.99;100.00;97110.44;5002051;28;20439;-69
2020/12/09 07:10:01;;;;;;;143.73;91.27;;;;;;;0.86;100.00;97115.00;4989985;28;20300;-69
2020/12/09 07:12:29;;;;;;;198.70;91.40;;;;;;;0.90;100.00;97112.97;4999830;28;20438;-69
2020/12/09 07:14:57;;;;;;;24.53;20.33;;;;;;;0.98;100.00;97116.63;4958082;28;20240;-69
2020/12/09 07:17:26;;;;;;;24.97;22.37;;;;;;;0.97;100.00;97116.75;4997854;28;20208;-70
2020/12/09 07:19:55;;;;;;;24.57;21.93;;;;;;;0.96;100.00;97121.13;4998120;28;20301;-70
2020/12/09 07:22:23;;;;;;;32.07;24.40;;;;;;;0.91;100.00;97127.66;4993192;28;20224;-69
2020/12/09 07:24:51;;;;;;;123.00;64.53;;;;;;;0.86;100.00;97125.44;4983603;28;20240;-70
2020/12/09 07:27:20;;;;;;;45.83;32.73;;;;;;;0.91;100.00;97131.13;4994940;28;20205;-67
2020/12/09 07:29:48;;;;;;;37.90;27.87;;;;;;;0.89;100.00;97143.44;4997107;28;20201;-69
2020/12/09 07:32:20;;;;;;;42.57;32.07;;;;;;;0.75;100.00;97136.75;4966000;28;20208;-66
2020/12/09 07:34:56;;;;;;;26.80;22.63;;;;;;;0.78;100.00;97143.50;5001757;28;20588;-69
2020/12/09 07:37:24;;;;;;;25.70;21.43;;;;;;;0.70;100.00;97138.88;4989710;28;20462;-68
2020/12/09 07:39:53;;;;;;;25.20;22.13;;;;;;;0.74;100.00;97137.69;4992520;28;20240;-69
2020/12/09 07:42:22;;;;;;;24.83;22.00;;;;;;;0.86;100.00;97133.28;4992587;28;20855;-68
2020/12/09 07:44:50;;;;;;;27.27;22.83;;;;;;;0.77;100.00;97153.09;4996292;28;20225;-69
2020/12/09 07:47:36;;;;;;;28.60;23.13;;;;;;;0.83;100.00;97138.75;4965477;28;20532;-67
2020/12/09 07:50:05;;;;;;;27.77;23.63;;;;;;;0.84;100.00;97151.66;5002955;28;20243;-69
2020/12/09 07:52:33;;;;;;;27.80;22.90;;;;;;;0.88;100.00;97154.84;4997050;28;20280;-70
2020/12/09 07:55:01;;;;;;;26.87;23.33;;;;;;;0.84;100.00;97151.66;4985933;28;20237;-69
2020/12/09 07:57:32;;;;;;;26.97;22.43;;;;;;;0.76;100.00;97161.03;4997256;28;20201;-68
2020/12/09 08:00:00;;;;;;;25.20;22.10;;;;;;;0.68;100.00;97153.84;4997777;28;20212;-69
2020/12/09 08:02:28;;;;;;;25.47;22.60;;;;;;;0.80;100.00;97152.84;4961898;28;20213;-69
2020/12/09 08:05:13;;;;;;;29.90;24.33;;;;;;;0.70;100.00;97151.94;4999047;28;20597;-68
2020/12/09 08:07:51;;;;;;;27.70;22.27;;;;;;;0.75;100.00;97152.38;4992539;28;20443;-68
2020/12/09 08:10:26;;;;;;;27.93;22.70;;;;;;;0.76;100.00;97150.59;4988777;28;20525;-66
2020/12/09 08:13:04;;;;;;;54.83;33.47;;;;;;;0.70;100.00;97159.75;4993028;28;20229;-69
2020/12/09 08:15:31;;;;;;;99.53;50.27;;;;;;;0.67;100.00;97146.97;4956284;28;20715;-69
2020/12/09 08:17:59;;;;;;;32.60;24.73;;;;;;;0.74;100.00;97142.06;5000494;28;20204;-68
2020/12/09 08:20:26;;;;;;;73.43;37.30;;;;;;;0.78;100.00;97149.53;4996443;28;20201;-69
2020/12/09 08:22:58;;;;;;;94.87;41.13;;;;;;;0.84;100.00;97146.44;5001382;28;20440;-69
2020/12/09 08:25:27;;;;;;;43.10;29.03;;;;;;;0.80;100.00;97155.44;4986638;28;20744;-69
2020/12/09 08:27:55;;;;;;;31.70;24.93;;;;;;;0.80;100.00;97158.06;4997113;28;20212;-67
2020/12/09 08:30:26;;;;;;;43.53;30.27;;;;;;;0.85;100.00;97155.91;4992894;28;20219;-66
2020/12/09 08:33:01;;;;;;;29.13;24.63;;;;;;;0.84;100.00;97156.03;4964698;28;20234;-68
2020/12/09 08:35:30;;;;;;;43.93;30.07;;;;;;;0.75;100.00;97155.00;4988862;28;20239;-68
2020/12/09 08:38:01;;;;;;;36.20;26.67;;;;;;;0.86;100.00;97157.56;4994903;28;20665;-69
2020/12/09 08:40:28;;;;;;;38.93;27.67;;;;;;;0.93;100.00;97157.06;4991283;28;20205;-69
2020/12/09 08:42:58;;;;;;;32.00;24.47;;;;;;;0.97;100.00;97161.09;4989266;28;20216;-68
2020/12/09 08:45:26;;;;;;;30.20;24.33;;;;;;;0.86;100.00;97168.00;4994502;28;20229;-70
2020/12/09 08:47:53;;;;;;;32.60;26.00;;;;;;;0.81;100.00;97167.53;4960020;28;20216;-68
2020/12/09 08:50:21;;;;;;;30.07;24.67;;;;;;;0.77;100.00;97163.53;4991131;28;20208;-66
2020/12/09 08:52:49;;;;;;;33.03;25.90;;;;;;;0.80;100.00;97165.06;5004634;28;20291;-68
2020/12/09 08:55:16;;;;;;;36.80;28.90;;;;;;;0.86;100.00;97169.78;5000398;28;20631;-69
2020/12/09 08:57:43;;;;;;;30.50;23.33;;;;;;;0.91;100.00;97166.78;4989717;28;20454;-68
2020/12/09 09:00:10;;;;;;;30.27;24.37;;;;;;;0.85;100.00;97168.94;5000668;28;20511;-69
2020/12/09 09:02:39;;;;;;;29.53;23.77;;;;;;;0.78;100.00;97173.00;4999737;28;20213;-68
2020/12/09 09:05:06;;;;;;;28.23;23.33;;;;;;;0.91;100.00;97172.00;4962360;28;20259;-67
2020/12/09 09:07:33;;;;;;;31.23;25.37;;;;;;;0.86;100.00;97177.63;5002116;28;20760;-68
2020/12/09 09:10:01;;;;;;;29.90;24.63;;;;;;;0.78;100.00;97178.22;5000506;28;20219;-66
2020/12/09 09:12:28;;;;;;;33.17;24.73;;;;;;;0.79;100.00;97185.09;4986960;28;20211;-68
2020/12/09 09:14:55;;;;;;;48.20;34.23;;;;;;;0.92;100.00;97184.09;4997780;28;20267;-66
2020/12/09 09:17:22;;;;;;;118.67;56.73;;;;;;;0.77;100.00;97180.97;4999342;28;20608;-69
2020/12/09 09:20:01;;;;;;;111.57;50.17;;;;;;;1.01;100.00;97186.00;4971051;28;20692;-66
2020/12/09 09:22:27;;;;;;;120.60;60.67;;;;;;;0.98;100.00;97181.03;5005854;28;20208;-68
2020/12/09 09:24:54;;;;;;;47.83;33.40;;;;;;;0.97;100.00;97182.78;5002018;28;20664;-66
2020/12/09 09:27:22;;;;;;;32.03;25.83;;;;;;;1.07;100.00;97182.88;5000413;28;20829;-69
2020/12/09 09:29:50;;;;;;;31.27;24.23;;;;;;;1.10;100.00;97181.78;4989930;28;20620;-66
2020/12/09 09:32:17;;;;;;;29.67;24.87;;;;;;;1.09;100.00;97182.75;4999672;28;20200;-68
2020/12/09 09:34:44;;;;;;;31.20;24.63;;;;;;;1.05;100.00;97186.56;4995443;28;20248;-68
2020/12/09 09:37:11;;;;;;;28.43;25.37;;;;;;;0.96;100.00;97173.31;4960403;28;20462;-68
2020/12/09 09:39:38;;;;;;;35.60;29.80;;;;;;;1.06;100.00;97180.38;5002040;28;20205;-66
2020/12/09 09:42:05;;;;;;;28.43;24.70;;;;;;;1.08;100.00;97174.09;4998484;28;20279;-66
2020/12/09 09:44:33;;;;;;;29.00;24.73;;;;;;;1.10;100.00;97190.47;4991285;28;20251;-68
2020/12/09 09:47:01;;;;;;;30.07;24.30;;;;;;;1.18;100.00;97182.03;4995518;28;20267;-66
2020/12/09 09:49:28;;;;;;;31.90;24.00;;;;;;;1.18;100.00;97186.41;4999119;28;20674;-67
2020/12/09 09:51:55;;;;;;;28.00;23.53;;;;;;;1.41;100.00;97197.56;4970553;28;20595;-66
2020/12/09 09:54:22;;;;;;;30.37;26.20;;;;;;;1.24;100.00;97194.56;5002947;28;20503;-67
2020/12/09 09:56:50;;;;;;;28.70;24.47;;;;;;;1.13;100.00;97195.44;5000850;28;20200;-67
2020/12/09 09:59:17;;;;;;;27.80;24.83;;;;;;;1.26;100.00;97199.66;4998194;28;20677;-68
2020/12/09 10:01:45;;;;;;;28.10;24.77;;;;;;;1.17;100.00;97198.63;4992870;28;20689;-68
2020/12/09 10:04:12;;;;;;;28.93;23.37;;;;;;;1.25;100.00;97195.38;4994899;28;20228;-68
2020/12/09 10:06:39;;;;;;;30.33;23.77;;;;;;;1.26;100.00;97197.03;4962054;28;20225;-67
2020/12/09 10:09:07;;;;;;;27.90;23.30;;;;;;;1.22;100.00;97203.47;4999991;28;20477;-68
2020/12/09 10:11:38;;;;;;;29.17;24.83;;;;;;;1.20;100.00;97197.53;5005071;28;20213;-68
2020/12/09 10:14:05;;;;;;;26.73;23.30;;;;;;;1.23;100.00;97192.91;4990425;28;20225;-66
2020/12/09 10:16:32;;;;;;;30.97;25.73;;;;;;;1.16;100.00;97196.97;4991744;28;20233;-67
2020/12/09 10:19:00;;;;;;;26.90;24.00;;;;;;;1.26;100.00;97194.44;4997873;28;20525;-66
2020/12/09 10:21:29;;;;;;;32.40;26.47;;;;;;;1.21;100.00;97187.00;4995753;28;20491;-68
2020/12/09 10:23:56;;;;;;;35.63;26.70;;;;;;;1.08;100.00;97194.13;4965663;28;20475;-67
2020/12/09 10:26:27;;;;;;;37.73;27.57;;;;;;;1.07;100.00;97193.31;4995897;28;20458;-68
2020/12/09 10:28:54;;;;;;;31.87;24.23;;;;;;;1.04;100.00;97188.34;4999031;28;20220;-66
2020/12/09 10:31:22;;;;;;;44.83;32.30;;;;;;;1.15;100.00;97195.31;4984240;28;20434;-69
2020/12/09 10:33:50;;;;;;;29.60;26.03;;;;;;;1.05;100.00;97197.84;4998667;28;20228;-66
2020/12/09 10:36:22;;;;;;;36.53;27.00;;;;;;;1.05;100.00;97195.22;4992344;28;20231;-69
2020/12/09 10:38:50;;;;;;;33.87;26.70;;;;;;;1.13;100.00;97187.59;4958830;28;20209;-66
2020/12/09 10:41:17;;;;;;;31.87;25.37;;;;;;;1.31;100.00;97184.44;4999703;28;20432;-69
2020/12/09 10:43:45;;;;;;;29.67;23.63;;;;;;;1.39;100.00;97178.59;5001254;28;20201;-69
2020/12/09 10:46:12;;;;;;;29.67;25.20;;;;;;;1.21;100.00;97184.38;4988776;28;20731;-69
2020/12/09 10:48:39;;;;;;;27.87;24.10;;;;;;;1.06;100.00;97181.22;5004779;28;20213;-66
2020/12/09 10:51:06;;;;;;;30.77;25.97;;;;;;;1.06;100.00;97170.78;4996743;28;20204;-68
2020/12/09 10:53:34;;;;;;;33.20;26.77;;;;;;;0.96;100.00;97170.69;4959444;28;20243;-68
2020/12/09 10:56:01;;;;;;;30.10;24.20;;;;;;;1.12;100.00;97172.06;5000238;28;20232;-66
2020/12/09 10:58:28;;;;;;;33.10;26.17;;;;;;;1.18;100.00;97173.34;5003654;28;20581;-69
2020/12/09 11:00:56;;;;;;;28.37;23.70;;;;;;;1.05;100.00;97169.13;5000313;28;20213;-66
2020/12/09 11:03:23;;;;;;;35.23;28.50;;;;;;;0.98;100.00;97167.97;4984910;28;20520;-69
2020/12/09 11:05:50;;;;;;;36.40;28.57;;;;;;;0.96;100.00;97170.69;4998791;28;20244;-66
2020/12/09 11:08:17;;;;;;;50.30;36.77;;;;;;;1.06;100.00;97169.94;4959811;28;20354;-69
2020/12/09 11:10:45;;;;;;;48.03;29.87;;;;;;;1.08;100.00;97176.72;5003013;28;20211;-67
2020/12/09 11:13:12;;;;;;;29.63;24.40;;;;;;;1.06;100.00;97178.63;4999421;28;21240;-67
2020/12/09 11:15:39;;;;;;;31.73;25.77;;;;;;;0.92;100.00;97174.50;5002610;28;20237;-67
2020/12/09 11:18:07;;;;;;;40.80;29.77;;;;;;;0.97;100.00;97176.75;4982780;28;20308;-67
2020/12/09 11:20:35;;;;;;;35.50;27.90;;;;;;;0.93;100.00;97185.75;4999306;28;20554;-68
2020/12/09 11:23:02;;;;;;;105.27;47.97;;;;;;;0.92;100.00;97179.72;4994128;28;20284;-66
2020/12/09 11:25:29;;;;;;;34.70;26.63;;;;;;;0.89;100.00;97179.97;4962965;28;20862;-68